sensor_id;sensor_type;location;lat;lon;timestamp;temperature;humidity
8709;DHT22;4391;48.678;9.280;2023-04-16T00:00:38;7.00;99.90
8709;DHT22;4391;48.678;9.280;2023-04-16T00:03:05;7.10;99.90
8709;DHT22;4391;48.678;9.280;2023-04-16T00:05:32;7.00;99.90
8709;DHT22;4391;48.678;9.280;2023-04-16T00:07:59;7.00;99.90
8709;DHT22;4391;48.678;9.280;2023-04-16T00:10:25;7.00;99.90
8709;DHT22;4391;48.678;9.280;2023-04-16T00:12:54;7.00;99.90
8709;DHT22;4391;48.678;9.280;2023-04-16T00:15:21;7.00;99.90
8709;DHT22;4391;48.678;9.280;2023-04-16T00:17:47;7.00;99.90
8709;DHT22;4391;48.678;9.280;2023-04-16T00:20:14;7.00;99.90
8709;DHT22;4391;48.678;9.280;2023-04-16T00:22:41;7.00;99.90
8709;DHT22;4391;48.678;9.280;2023-04-16T00:25:08;7.10;99.90
8709;DHT22;4391;48.678;9.280;2023-04-16T00:27:35;7.00;99.90
8709;DHT22;4391;48.678;9.280;2023-04-16T00:30:04;7.00;99.90
8709;DHT22;4391;48.678;9.280;2023-04-16T00:32:31;7.00;99.90
8709;DHT22;4391;48.678;9.280;2023-04-16T00:34:58;7.00;99.90
8709;DHT22;4391;48.678;9.280;2023-04-16T00:37:25;7.00;99.90
8709;DHT22;4391;48.678;9.280;2023-04-16T00:39:52;7.00;99.90
8709;DHT22;4391;48.678;9.280;2023-04-16T00:42:19;7.00;99.90
8709;DHT22;4391;48.678;9.280;2023-04-16T00:44:46;7.00;99.90
8709;DHT22;4391;48.678;9.280;2023-04-16T00:47:14;7.00;99.90
8709;DHT22;4391;48.678;9.280;2023-04-16T00:49:41;7.00;99.90
8709;DHT22;4391;48.678;9.280;2023-04-16T00:52:10;7.00;99.90
8709;DHT22;4391;48.678;9.280;2023-04-16T00:54:38;7.00;99.90
8709;DHT22;4391;48.678;9.280;2023-04-16T00:57:05;6.90;99.90
8709;DHT22;4391;48.678;9.280;2023-04-16T00:59:32;7.00;99.90
8709;DHT22;4391;48.678;9.280;2023-04-16T01:01:59;6.90;99.90
8709;DHT22;4391;48.678;9.280;2023-04-16T01:04:27;7.00;99.90
8709;DHT22;4391;48.678;9.280;2023-04-16T01:06:55;7.00;99.90
8709;DHT22;4391;48.678;9.280;2023-04-16T01:09:22;7.00;99.90
8709;DHT22;4391;48.678;9.280;2023-04-16T01:11:48;7.00;99.90
8709;DHT22;4391;48.678;9.280;2023-04-16T01:14:15;7.00;99.90
8709;DHT22;4391;48.678;9.280;2023-04-16T01:16:42;7.00;99.90
8709;DHT22;4391;48.678;9.280;2023-04-16T01:19:09;7.00;99.90
8709;DHT22;4391;48.678;9.280;2023-04-16T01:21:37;7.00;99.90
8709;DHT22;4391;48.678;9.280;2023-04-16T01:24:04;7.00;99.90
8709;DHT22;4391;48.678;9.280;2023-04-16T01:26:32;7.00;99.90
8709;DHT22;4391;48.678;9.280;2023-04-16T01:28:59;7.00;99.90
8709;DHT22;4391;48.678;9.280;2023-04-16T01:31:25;7.00;99.90
8709;DHT22;4391;48.678;9.280;2023-04-16T01:33:52;7.10;99.90
8709;DHT22;4391;48.678;9.280;2023-04-16T01:36:19;7.00;99.90
8709;DHT22;4391;48.678;9.280;2023-04-16T01:38:48;7.00;99.90
8709;DHT22;4391;48.678;9.280;2023-04-16T01:41:15;7.00;99.90
8709;DHT22;4391;48.678;9.280;2023-04-16T01:43:41;7.00;99.90
8709;DHT22;4391;48.678;9.280;2023-04-16T01:46:13;7.00;99.90
8709;DHT22;4391;48.678;9.280;2023-04-16T01:48:40;7.00;99.90
8709;DHT22;4391;48.678;9.280;2023-04-16T01:51:07;7.00;99.90
8709;DHT22;4391;48.678;9.280;2023-04-16T01:53:34;7.00;99.90
8709;DHT22;4391;48.678;9.280;2023-04-16T01:56:03;7.00;99.90
8709;DHT22;4391;48.678;9.280;2023-04-16T01:58:31;7.00;99.90
8709;DHT22;4391;48.678;9.280;2023-04-16T02:00:58;7.00;99.90
8709;DHT22;4391;48.678;9.280;2023-04-16T02:03:25;7.00;99.90
8709;DHT22;4391;48.678;9.280;2023-04-16T02:05:52;7.00;99.90
8709;DHT22;4391;48.678;9.280;2023-04-16T02:08:19;7.00;99.90
8709;DHT22;4391;48.678;9.280;2023-04-16T02:10:46;7.00;99.90
8709;DHT22;4391;48.678;9.280;2023-04-16T02:13:14;7.00;99.90
8709;DHT22;4391;48.678;9.280;2023-04-16T02:15:44;7.00;99.90
8709;DHT22;4391;48.678;9.280;2023-04-16T02:18:12;7.00;99.90
8709;DHT22;4391;48.678;9.280;2023-04-16T02:20:40;7.00;99.90
8709;DHT22;4391;48.678;9.280;2023-04-16T02:23:07;7.00;99.90
8709;DHT22;4391;48.678;9.280;2023-04-16T02:25:37;7.00;99.90
8709;DHT22;4391;48.678;9.280;2023-04-16T02:28:06;7.00;99.90
8709;DHT22;4391;48.678;9.280;2023-04-16T02:30:34;7.00;99.90
8709;DHT22;4391;48.678;9.280;2023-04-16T02:33:02;7.00;99.90
8709;DHT22;4391;48.678;9.280;2023-04-16T02:35:30;6.90;99.90
8709;DHT22;4391;48.678;9.280;2023-04-16T02:37:57;6.90;99.90
8709;DHT22;4391;48.678;9.280;2023-04-16T02:40:24;7.00;99.90
8709;DHT22;4391;48.678;9.280;2023-04-16T02:42:51;7.00;99.90
8709;DHT22;4391;48.678;9.280;2023-04-16T02:45:18;7.00;99.90
8709;DHT22;4391;48.678;9.280;2023-04-16T02:47:46;7.00;99.90
8709;DHT22;4391;48.678;9.280;2023-04-16T02:50:14;7.00;99.90
8709;DHT22;4391;48.678;9.280;2023-04-16T02:52:41;6.90;99.90
8709;DHT22;4391;48.678;9.280;2023-04-16T02:55:09;6.90;99.90
8709;DHT22;4391;48.678;9.280;2023-04-16T02:57:36;6.90;99.90
8709;DHT22;4391;48.678;9.280;2023-04-16T03:00:03;6.90;99.90
8709;DHT22;4391;48.678;9.280;2023-04-16T03:02:30;6.90;99.90
8709;DHT22;4391;48.678;9.280;2023-04-16T03:04:58;7.00;99.90
8709;DHT22;4391;48.678;9.280;2023-04-16T03:07:25;7.00;99.90
8709;DHT22;4391;48.678;9.280;2023-04-16T03:09:52;7.00;99.90
8709;DHT22;4391;48.678;9.280;2023-04-16T03:12:19;6.90;99.90
8709;DHT22;4391;48.678;9.280;2023-04-16T03:14:45;6.90;99.90
8709;DHT22;4391;48.678;9.280;2023-04-16T03:17:12;6.90;99.90
8709;DHT22;4391;48.678;9.280;2023-04-16T03:19:39;7.00;99.90
8709;DHT22;4391;48.678;9.280;2023-04-16T03:22:07;6.90;99.90
8709;DHT22;4391;48.678;9.280;2023-04-16T03:24:34;6.90;99.90
8709;DHT22;4391;48.678;9.280;2023-04-16T03:27:02;7.00;99.90
8709;DHT22;4391;48.678;9.280;2023-04-16T03:29:28;6.90;99.90
8709;DHT22;4391;48.678;9.280;2023-04-16T03:31:55;6.90;99.90
8709;DHT22;4391;48.678;9.280;2023-04-16T03:34:22;6.90;99.90
8709;DHT22;4391;48.678;9.280;2023-04-16T03:36:49;6.90;99.90
8709;DHT22;4391;48.678;9.280;2023-04-16T03:39:17;6.90;99.90
8709;DHT22;4391;48.678;9.280;2023-04-16T03:41:44;6.90;99.90
8709;DHT22;4391;48.678;9.280;2023-04-16T03:44:10;6.90;99.90
8709;DHT22;4391;48.678;9.280;2023-04-16T03:46:37;6.90;99.90
8709;DHT22;4391;48.678;9.280;2023-04-16T03:49:04;6.90;99.90
8709;DHT22;4391;48.678;9.280;2023-04-16T03:51:31;6.90;99.90
8709;DHT22;4391;48.678;9.280;2023-04-16T03:53:57;6.90;99.90
8709;DHT22;4391;48.678;9.280;2023-04-16T03:56:26;6.90;99.90
8709;DHT22;4391;48.678;9.280;2023-04-16T03:58:52;6.90;99.90
8709;DHT22;4391;48.678;9.280;2023-04-16T04:01:19;6.90;99.90
8709;DHT22;4391;48.678;9.280;2023-04-16T04:03:46;6.90;99.90
8709;DHT22;4391;48.678;9.280;2023-04-16T04:06:13;6.90;99.90
8709;DHT22;4391;48.678;9.280;2023-04-16T04:08:39;6.90;99.90
8709;DHT22;4391;48.678;9.280;2023-04-16T04:11:06;6.90;99.90
8709;DHT22;4391;48.678;9.280;2023-04-16T04:13:34;6.90;99.90
8709;DHT22;4391;48.678;9.280;2023-04-16T04:16:01;6.90;99.90
8709;DHT22;4391;48.678;9.280;2023-04-16T04:18:28;6.90;99.90
8709;DHT22;4391;48.678;9.280;2023-04-16T04:20:55;6.90;99.90
8709;DHT22;4391;48.678;9.280;2023-04-16T04:23:22;6.80;99.90
8709;DHT22;4391;48.678;9.280;2023-04-16T04:25:49;6.80;99.90
8709;DHT22;4391;48.678;9.280;2023-04-16T04:28:16;6.90;99.90
8709;DHT22;4391;48.678;9.280;2023-04-16T04:30:44;6.90;99.90
8709;DHT22;4391;48.678;9.280;2023-04-16T04:33:11;6.80;99.90
8709;DHT22;4391;48.678;9.280;2023-04-16T04:35:37;6.80;99.90
8709;DHT22;4391;48.678;9.280;2023-04-16T04:38:04;6.80;99.90
8709;DHT22;4391;48.678;9.280;2023-04-16T04:40:31;6.90;99.90
8709;DHT22;4391;48.678;9.280;2023-04-16T04:42:58;6.80;99.90
8709;DHT22;4391;48.678;9.280;2023-04-16T04:45:24;6.80;99.90
8709;DHT22;4391;48.678;9.280;2023-04-16T04:47:52;6.80;99.90
8709;DHT22;4391;48.678;9.280;2023-04-16T04:50:20;6.80;99.90
8709;DHT22;4391;48.678;9.280;2023-04-16T04:52:47;6.80;99.90
8709;DHT22;4391;48.678;9.280;2023-04-16T04:55:13;6.90;99.90
8709;DHT22;4391;48.678;9.280;2023-04-16T04:57:40;6.90;99.90
8709;DHT22;4391;48.678;9.280;2023-04-16T05:00:08;6.80;99.90
8709;DHT22;4391;48.678;9.280;2023-04-16T05:02:35;6.80;99.90
8709;DHT22;4391;48.678;9.280;2023-04-16T05:05:05;6.80;99.90
8709;DHT22;4391;48.678;9.280;2023-04-16T05:07:31;6.80;99.90
8709;DHT22;4391;48.678;9.280;2023-04-16T05:09:58;6.80;99.90
8709;DHT22;4391;48.678;9.280;2023-04-16T05:12:25;6.80;99.90
8709;DHT22;4391;48.678;9.280;2023-04-16T05:14:52;6.90;99.90
8709;DHT22;4391;48.678;9.280;2023-04-16T05:17:19;6.90;99.90
8709;DHT22;4391;48.678;9.280;2023-04-16T05:19:45;6.90;99.90
8709;DHT22;4391;48.678;9.280;2023-04-16T05:22:14;6.90;99.90
8709;DHT22;4391;48.678;9.280;2023-04-16T05:24:43;6.80;99.90
8709;DHT22;4391;48.678;9.280;2023-04-16T05:27:10;6.80;99.90
8709;DHT22;4391;48.678;9.280;2023-04-16T05:29:36;6.90;99.90
8709;DHT22;4391;48.678;9.280;2023-04-16T05:32:03;6.90;99.90
8709;DHT22;4391;48.678;9.280;2023-04-16T05:34:30;6.90;99.90
8709;DHT22;4391;48.678;9.280;2023-04-16T05:36:57;6.90;99.90
8709;DHT22;4391;48.678;9.280;2023-04-16T05:39:25;6.90;99.90
8709;DHT22;4391;48.678;9.280;2023-04-16T05:41:52;6.90;99.90
8709;DHT22;4391;48.678;9.280;2023-04-16T05:44:19;6.90;99.90
8709;DHT22;4391;48.678;9.280;2023-04-16T05:46:46;6.90;99.90
8709;DHT22;4391;48.678;9.280;2023-04-16T05:49:12;6.90;99.90
8709;DHT22;4391;48.678;9.280;2023-04-16T05:51:40;6.90;99.90
8709;DHT22;4391;48.678;9.280;2023-04-16T05:54:06;6.90;99.90
8709;DHT22;4391;48.678;9.280;2023-04-16T05:56:34;6.90;99.90
8709;DHT22;4391;48.678;9.280;2023-04-16T05:59:01;6.90;99.90
8709;DHT22;4391;48.678;9.280;2023-04-16T06:01:28;6.90;99.90
8709;DHT22;4391;48.678;9.280;2023-04-16T06:03:55;6.90;99.90
8709;DHT22;4391;48.678;9.280;2023-04-16T06:06:22;6.90;99.90
8709;DHT22;4391;48.678;9.280;2023-04-16T06:08:49;6.90;99.90
8709;DHT22;4391;48.678;9.280;2023-04-16T06:11:16;6.90;99.90
8709;DHT22;4391;48.678;9.280;2023-04-16T06:13:44;6.90;99.90
8709;DHT22;4391;48.678;9.280;2023-04-16T06:16:11;6.90;99.90
8709;DHT22;4391;48.678;9.280;2023-04-16T06:18:37;7.00;99.90
8709;DHT22;4391;48.678;9.280;2023-04-16T06:21:04;7.00;99.90
8709;DHT22;4391;48.678;9.280;2023-04-16T06:23:31;7.00;99.90
8709;DHT22;4391;48.678;9.280;2023-04-16T06:25:58;7.00;99.90
8709;DHT22;4391;48.678;9.280;2023-04-16T06:28:25;7.10;99.90
8709;DHT22;4391;48.678;9.280;2023-04-16T06:30:53;7.00;99.90
8709;DHT22;4391;48.678;9.280;2023-04-16T06:33:20;7.00;99.90
8709;DHT22;4391;48.678;9.280;2023-04-16T06:35:47;7.00;99.90
8709;DHT22;4391;48.678;9.280;2023-04-16T06:38:14;7.00;99.90
8709;DHT22;4391;48.678;9.280;2023-04-16T06:40:41;7.00;99.90
8709;DHT22;4391;48.678;9.280;2023-04-16T06:43:07;7.00;99.90
8709;DHT22;4391;48.678;9.280;2023-04-16T06:45:34;7.00;99.90
8709;DHT22;4391;48.678;9.280;2023-04-16T06:48:03;7.00;99.90
8709;DHT22;4391;48.678;9.280;2023-04-16T06:50:30;7.00;99.90
8709;DHT22;4391;48.678;9.280;2023-04-16T06:52:57;7.00;99.90
8709;DHT22;4391;48.678;9.280;2023-04-16T06:55:23;7.10;99.90
8709;DHT22;4391;48.678;9.280;2023-04-16T06:57:50;7.10;99.90
8709;DHT22;4391;48.678;9.280;2023-04-16T07:00:17;7.10;99.90
8709;DHT22;4391;48.678;9.280;2023-04-16T07:02:44;7.10;99.90
8709;DHT22;4391;48.678;9.280;2023-04-16T07:05:13;7.10;99.90
8709;DHT22;4391;48.678;9.280;2023-04-16T07:07:40;7.10;99.90
8709;DHT22;4391;48.678;9.280;2023-04-16T07:10:07;7.10;99.90
8709;DHT22;4391;48.678;9.280;2023-04-16T07:12:35;7.10;99.90
8709;DHT22;4391;48.678;9.280;2023-04-16T07:15:03;7.10;99.90
8709;DHT22;4391;48.678;9.280;2023-04-16T07:17:30;7.10;99.90
8709;DHT22;4391;48.678;9.280;2023-04-16T07:19:57;7.10;99.90
8709;DHT22;4391;48.678;9.280;2023-04-16T07:22:25;7.10;99.90
8709;DHT22;4391;48.678;9.280;2023-04-16T07:24:51;7.10;99.90
8709;DHT22;4391;48.678;9.280;2023-04-16T07:27:18;7.20;99.90
8709;DHT22;4391;48.678;9.280;2023-04-16T07:29:45;7.10;99.90
8709;DHT22;4391;48.678;9.280;2023-04-16T07:32:14;7.20;99.90
8709;DHT22;4391;48.678;9.280;2023-04-16T07:34:41;7.20;99.90
8709;DHT22;4391;48.678;9.280;2023-04-16T07:37:07;7.20;99.90
8709;DHT22;4391;48.678;9.280;2023-04-16T07:39:36;7.20;99.90
8709;DHT22;4391;48.678;9.280;2023-04-16T07:42:03;7.20;99.90
8709;DHT22;4391;48.678;9.280;2023-04-16T07:44:30;7.30;99.90
8709;DHT22;4391;48.678;9.280;2023-04-16T07:46:57;7.30;99.90
8709;DHT22;4391;48.678;9.280;2023-04-16T07:49:23;7.30;99.90
8709;DHT22;4391;48.678;9.280;2023-04-16T07:51:50;7.40;99.90
8709;DHT22;4391;48.678;9.280;2023-04-16T07:54:17;7.40;99.90
8709;DHT22;4391;48.678;9.280;2023-04-16T07:56:45;7.50;99.90
8709;DHT22;4391;48.678;9.280;2023-04-16T07:59:12;7.50;99.90
8709;DHT22;4391;48.678;9.280;2023-04-16T08:01:39;7.50;99.90
8709;DHT22;4391;48.678;9.280;2023-04-16T08:04:06;7.50;99.90
8709;DHT22;4391;48.678;9.280;2023-04-16T08:06:33;7.50;99.90
8709;DHT22;4391;48.678;9.280;2023-04-16T08:08:59;7.50;99.90
8709;DHT22;4391;48.678;9.280;2023-04-16T08:11:26;7.60;99.90
8709;DHT22;4391;48.678;9.280;2023-04-16T08:13:55;7.60;99.90
8709;DHT22;4391;48.678;9.280;2023-04-16T08:16:21;7.50;99.90
8709;DHT22;4391;48.678;9.280;2023-04-16T08:18:48;7.50;99.90
8709;DHT22;4391;48.678;9.280;2023-04-16T08:21:15;7.60;99.90
8709;DHT22;4391;48.678;9.280;2023-04-16T08:23:42;7.60;99.90
8709;DHT22;4391;48.678;9.280;2023-04-16T08:26:09;7.60;99.90
8709;DHT22;4391;48.678;9.280;2023-04-16T08:28:36;7.60;99.90
8709;DHT22;4391;48.678;9.280;2023-04-16T08:31:05;7.60;99.90
8709;DHT22;4391;48.678;9.280;2023-04-16T08:33:32;7.60;99.90
8709;DHT22;4391;48.678;9.280;2023-04-16T08:35:58;7.60;99.90
8709;DHT22;4391;48.678;9.280;2023-04-16T08:38:25;7.60;99.90
8709;DHT22;4391;48.678;9.280;2023-04-16T08:40:53;7.60;99.90
8709;DHT22;4391;48.678;9.280;2023-04-16T08:43:23;7.60;99.90
8709;DHT22;4391;48.678;9.280;2023-04-16T08:45:52;7.60;99.90
8709;DHT22;4391;48.678;9.280;2023-04-16T08:48:22;7.70;99.90
8709;DHT22;4391;48.678;9.280;2023-04-16T08:50:51;7.60;99.90
8709;DHT22;4391;48.678;9.280;2023-04-16T08:53:21;7.70;99.90
8709;DHT22;4391;48.678;9.280;2023-04-16T08:55:57;7.60;99.90
8709;DHT22;4391;48.678;9.280;2023-04-16T08:58:28;7.60;99.90
8709;DHT22;4391;48.678;9.280;2023-04-16T09:00:56;7.60;99.90
8709;DHT22;4391;48.678;9.280;2023-04-16T09:03:25;7.70;99.90
8709;DHT22;4391;48.678;9.280;2023-04-16T09:05:54;7.60;99.90
8709;DHT22;4391;48.678;9.280;2023-04-16T09:08:23;7.60;99.90
8709;DHT22;4391;48.678;9.280;2023-04-16T09:10:52;7.60;99.90
8709;DHT22;4391;48.678;9.280;2023-04-16T09:13:19;7.70;99.90
8709;DHT22;4391;48.678;9.280;2023-04-16T09:15:51;7.70;99.90
8709;DHT22;4391;48.678;9.280;2023-04-16T09:18:18;7.80;99.90
8709;DHT22;4391;48.678;9.280;2023-04-16T09:20:48;7.90;99.90
8709;DHT22;4391;48.678;9.280;2023-04-16T09:23:15;7.90;99.90
8709;DHT22;4391;48.678;9.280;2023-04-16T09:25:42;8.00;99.90
8709;DHT22;4391;48.678;9.280;2023-04-16T09:28:09;8.10;99.90
8709;DHT22;4391;48.678;9.280;2023-04-16T09:30:36;8.10;99.90
8709;DHT22;4391;48.678;9.280;2023-04-16T09:33:15;8.10;99.90
8709;DHT22;4391;48.678;9.280;2023-04-16T09:35:47;8.20;99.90
8709;DHT22;4391;48.678;9.280;2023-04-16T09:38:14;8.20;99.90
8709;DHT22;4391;48.678;9.280;2023-04-16T09:40:41;8.30;99.90
8709;DHT22;4391;48.678;9.280;2023-04-16T09:43:12;8.40;99.90
8709;DHT22;4391;48.678;9.280;2023-04-16T09:45:48;8.50;99.90
8709;DHT22;4391;48.678;9.280;2023-04-16T09:48:15;8.50;99.90
8709;DHT22;4391;48.678;9.280;2023-04-16T09:50:55;8.40;99.90
8709;DHT22;4391;48.678;9.280;2023-04-16T09:53:25;8.40;99.90
8709;DHT22;4391;48.678;9.280;2023-04-16T09:55:55;8.40;99.90
8709;DHT22;4391;48.678;9.280;2023-04-16T09:58:23;8.40;99.90
8709;DHT22;4391;48.678;9.280;2023-04-16T10:00:54;8.30;99.90
8709;DHT22;4391;48.678;9.280;2023-04-16T10:03:28;8.30;99.90
8709;DHT22;4391;48.678;9.280;2023-04-16T10:05:59;8.30;99.90
8709;DHT22;4391;48.678;9.280;2023-04-16T10:08:25;8.20;99.90
8709;DHT22;4391;48.678;9.280;2023-04-16T10:10:53;8.20;99.90
8709;DHT22;4391;48.678;9.280;2023-04-16T10:13:21;8.20;99.90
8709;DHT22;4391;48.678;9.280;2023-04-16T10:15:49;8.30;99.90
8709;DHT22;4391;48.678;9.280;2023-04-16T10:18:17;8.30;99.90
8709;DHT22;4391;48.678;9.280;2023-04-16T10:20:44;8.30;99.90
8709;DHT22;4391;48.678;9.280;2023-04-16T10:23:15;8.30;99.90
8709;DHT22;4391;48.678;9.280;2023-04-16T10:25:42;8.20;99.90
8709;DHT22;4391;48.678;9.280;2023-04-16T10:28:11;8.20;99.90
8709;DHT22;4391;48.678;9.280;2023-04-16T10:30:39;8.20;99.90
8709;DHT22;4391;48.678;9.280;2023-04-16T10:33:07;8.20;99.90
8709;DHT22;4391;48.678;9.280;2023-04-16T10:35:38;8.10;99.90
8709;DHT22;4391;48.678;9.280;2023-04-16T10:38:22;8.10;99.90
8709;DHT22;4391;48.678;9.280;2023-04-16T10:40:49;8.10;99.90
8709;DHT22;4391;48.678;9.280;2023-04-16T10:43:17;8.10;99.90
8709;DHT22;4391;48.678;9.280;2023-04-16T10:45:47;8.20;99.90
8709;DHT22;4391;48.678;9.280;2023-04-16T10:48:17;8.20;99.90
8709;DHT22;4391;48.678;9.280;2023-04-16T10:50:53;8.30;99.90
8709;DHT22;4391;48.678;9.280;2023-04-16T10:53:24;8.30;99.90
8709;DHT22;4391;48.678;9.280;2023-04-16T10:58:40;8.40;99.90
8709;DHT22;4391;48.678;9.280;2023-04-16T11:01:11;8.40;99.90
8709;DHT22;4391;48.678;9.280;2023-04-16T11:03:43;8.50;99.90
8709;DHT22;4391;48.678;9.280;2023-04-16T11:06:14;8.60;99.90
8709;DHT22;4391;48.678;9.280;2023-04-16T11:08:44;8.60;99.90
8709;DHT22;4391;48.678;9.280;2023-04-16T11:11:12;8.60;99.90
8709;DHT22;4391;48.678;9.280;2023-04-16T11:13:42;8.50;99.90
8709;DHT22;4391;48.678;9.280;2023-04-16T11:16:10;8.50;99.90
8709;DHT22;4391;48.678;9.280;2023-04-16T11:18:38;8.50;99.90
8709;DHT22;4391;48.678;9.280;2023-04-16T11:21:07;8.50;99.90
8709;DHT22;4391;48.678;9.280;2023-04-16T11:23:46;8.50;99.90
8709;DHT22;4391;48.678;9.280;2023-04-16T11:26:22;8.60;99.90
8709;DHT22;4391;48.678;9.280;2023-04-16T11:28:49;8.60;99.90
8709;DHT22;4391;48.678;9.280;2023-04-16T11:31:16;8.70;99.90
8709;DHT22;4391;48.678;9.280;2023-04-16T11:33:42;8.80;99.90
8709;DHT22;4391;48.678;9.280;2023-04-16T11:36:09;8.80;99.90
8709;DHT22;4391;48.678;9.280;2023-04-16T11:38:37;8.80;99.90
8709;DHT22;4391;48.678;9.280;2023-04-16T11:41:07;8.90;99.90
8709;DHT22;4391;48.678;9.280;2023-04-16T11:43:34;8.90;99.90
8709;DHT22;4391;48.678;9.280;2023-04-16T11:46:01;9.00;99.90
8709;DHT22;4391;48.678;9.280;2023-04-16T11:48:47;8.90;99.90
8709;DHT22;4391;48.678;9.280;2023-04-16T11:51:14;8.90;99.90
8709;DHT22;4391;48.678;9.280;2023-04-16T11:53:46;9.00;99.90
8709;DHT22;4391;48.678;9.280;2023-04-16T11:56:14;9.00;99.90
8709;DHT22;4391;48.678;9.280;2023-04-16T11:58:42;9.00;99.90
8709;DHT22;4391;48.678;9.280;2023-04-16T12:01:09;9.00;99.90
8709;DHT22;4391;48.678;9.280;2023-04-16T12:03:37;9.10;99.90
8709;DHT22;4391;48.678;9.280;2023-04-16T12:06:06;9.00;99.90
8709;DHT22;4391;48.678;9.280;2023-04-16T12:08:34;9.00;99.90
8709;DHT22;4391;48.678;9.280;2023-04-16T12:11:00;9.10;99.90
8709;DHT22;4391;48.678;9.280;2023-04-16T12:13:29;9.10;99.90
8709;DHT22;4391;48.678;9.280;2023-04-16T12:15:56;9.10;99.90
8709;DHT22;4391;48.678;9.280;2023-04-16T12:18:23;9.10;99.90
8709;DHT22;4391;48.678;9.280;2023-04-16T12:20:51;9.10;99.90
8709;DHT22;4391;48.678;9.280;2023-04-16T12:23:22;9.00;99.90
8709;DHT22;4391;48.678;9.280;2023-04-16T12:25:49;9.00;99.90
8709;DHT22;4391;48.678;9.280;2023-04-16T12:28:26;8.90;99.90
8709;DHT22;4391;48.678;9.280;2023-04-16T12:30:55;8.90;99.90
8709;DHT22;4391;48.678;9.280;2023-04-16T12:33:22;8.90;99.90
8709;DHT22;4391;48.678;9.280;2023-04-16T12:35:48;9.00;99.90
8709;DHT22;4391;48.678;9.280;2023-04-16T12:38:15;9.10;99.90
8709;DHT22;4391;48.678;9.280;2023-04-16T12:40:42;9.20;99.90
8709;DHT22;4391;48.678;9.280;2023-04-16T12:43:09;9.20;99.90
8709;DHT22;4391;48.678;9.280;2023-04-16T12:45:37;9.20;99.90
8709;DHT22;4391;48.678;9.280;2023-04-16T12:48:06;9.20;99.90
8709;DHT22;4391;48.678;9.280;2023-04-16T12:50:32;9.10;99.90
8709;DHT22;4391;48.678;9.280;2023-04-16T12:52:59;9.20;99.90
8709;DHT22;4391;48.678;9.280;2023-04-16T12:55:26;9.20;99.90
8709;DHT22;4391;48.678;9.280;2023-04-16T12:57:53;9.30;99.90
8709;DHT22;4391;48.678;9.280;2023-04-16T13:00:20;9.30;99.90
8709;DHT22;4391;48.678;9.280;2023-04-16T13:02:47;9.30;99.90
8709;DHT22;4391;48.678;9.280;2023-04-16T13:05:15;9.20;99.90
8709;DHT22;4391;48.678;9.280;2023-04-16T13:07:43;9.10;99.90
8709;DHT22;4391;48.678;9.280;2023-04-16T13:10:11;9.10;99.90
8709;DHT22;4391;48.678;9.280;2023-04-16T13:12:38;9.10;99.90
8709;DHT22;4391;48.678;9.280;2023-04-16T13:15:06;9.00;99.90
8709;DHT22;4391;48.678;9.280;2023-04-16T13:17:33;9.00;99.90
8709;DHT22;4391;48.678;9.280;2023-04-16T13:19:59;9.00;99.90
8709;DHT22;4391;48.678;9.280;2023-04-16T13:22:27;9.00;99.90
8709;DHT22;4391;48.678;9.280;2023-04-16T13:24:54;8.90;99.90
8709;DHT22;4391;48.678;9.280;2023-04-16T13:27:21;9.00;99.90
8709;DHT22;4391;48.678;9.280;2023-04-16T13:29:48;8.90;99.90
8709;DHT22;4391;48.678;9.280;2023-04-16T13:32:15;8.90;99.90
8709;DHT22;4391;48.678;9.280;2023-04-16T13:34:43;8.80;99.90
8709;DHT22;4391;48.678;9.280;2023-04-16T13:37:10;8.70;99.90
8709;DHT22;4391;48.678;9.280;2023-04-16T13:39:38;8.70;99.90
8709;DHT22;4391;48.678;9.280;2023-04-16T13:42:05;8.70;99.90
8709;DHT22;4391;48.678;9.280;2023-04-16T13:44:32;8.70;99.90
8709;DHT22;4391;48.678;9.280;2023-04-16T13:46:58;8.70;99.90
8709;DHT22;4391;48.678;9.280;2023-04-16T13:49:25;8.60;99.90
8709;DHT22;4391;48.678;9.280;2023-04-16T13:51:54;8.70;99.90
8709;DHT22;4391;48.678;9.280;2023-04-16T13:54:21;8.70;99.90
8709;DHT22;4391;48.678;9.280;2023-04-16T13:56:50;8.70;99.90
8709;DHT22;4391;48.678;9.280;2023-04-16T13:59:17;8.70;99.90
8709;DHT22;4391;48.678;9.280;2023-04-16T14:01:44;8.70;99.90
8709;DHT22;4391;48.678;9.280;2023-04-16T14:04:11;8.60;99.90
8709;DHT22;4391;48.678;9.280;2023-04-16T14:06:38;8.60;99.90
8709;DHT22;4391;48.678;9.280;2023-04-16T14:09:05;8.60;99.90
8709;DHT22;4391;48.678;9.280;2023-04-16T14:11:33;8.50;99.90
8709;DHT22;4391;48.678;9.280;2023-04-16T14:14:02;8.60;99.90
8709;DHT22;4391;48.678;9.280;2023-04-16T14:16:29;8.60;99.90
8709;DHT22;4391;48.678;9.280;2023-04-16T14:18:55;8.60;99.90
8709;DHT22;4391;48.678;9.280;2023-04-16T14:21:22;8.60;99.90
8709;DHT22;4391;48.678;9.280;2023-04-16T14:23:49;8.50;99.90
8709;DHT22;4391;48.678;9.280;2023-04-16T14:26:16;8.60;99.90
8709;DHT22;4391;48.678;9.280;2023-04-16T14:28:43;8.60;99.90
8709;DHT22;4391;48.678;9.280;2023-04-16T14:31:11;8.50;99.90
8709;DHT22;4391;48.678;9.280;2023-04-16T14:33:38;8.50;99.90
8709;DHT22;4391;48.678;9.280;2023-04-16T14:36:05;8.50;99.90
8709;DHT22;4391;48.678;9.280;2023-04-16T14:38:32;8.50;99.90
8709;DHT22;4391;48.678;9.280;2023-04-16T14:40:59;8.50;99.90
8709;DHT22;4391;48.678;9.280;2023-04-16T14:43:26;8.50;99.90
8709;DHT22;4391;48.678;9.280;2023-04-16T14:48:25;8.50;99.90
8709;DHT22;4391;48.678;9.280;2023-04-16T14:50:52;8.50;99.90
8709;DHT22;4391;48.678;9.280;2023-04-16T14:53:21;8.50;99.90
8709;DHT22;4391;48.678;9.280;2023-04-16T14:55:48;8.50;99.90
8709;DHT22;4391;48.678;9.280;2023-04-16T14:58:15;8.50;99.90
8709;DHT22;4391;48.678;9.280;2023-04-16T15:00:42;8.50;99.90
8709;DHT22;4391;48.678;9.280;2023-04-16T15:03:09;8.40;99.90
8709;DHT22;4391;48.678;9.280;2023-04-16T15:05:38;8.40;99.90
8709;DHT22;4391;48.678;9.280;2023-04-16T15:08:05;8.40;99.90
8709;DHT22;4391;48.678;9.280;2023-04-16T15:10:32;8.40;99.90
8709;DHT22;4391;48.678;9.280;2023-04-16T15:12:59;8.40;99.90
8709;DHT22;4391;48.678;9.280;2023-04-16T15:15:26;8.40;99.90
8709;DHT22;4391;48.678;9.280;2023-04-16T15:17:54;8.40;99.90
8709;DHT22;4391;48.678;9.280;2023-04-16T15:20:22;8.40;99.90
8709;DHT22;4391;48.678;9.280;2023-04-16T15:22:51;8.40;99.90
8709;DHT22;4391;48.678;9.280;2023-04-16T15:25:18;8.30;99.90
8709;DHT22;4391;48.678;9.280;2023-04-16T15:27:45;8.40;99.90
8709;DHT22;4391;48.678;9.280;2023-04-16T15:30:12;8.40;99.90
8709;DHT22;4391;48.678;9.280;2023-04-16T15:32:40;8.40;99.90
8709;DHT22;4391;48.678;9.280;2023-04-16T15:35:07;8.30;99.90
8709;DHT22;4391;48.678;9.280;2023-04-16T15:37:35;8.40;99.90
8709;DHT22;4391;48.678;9.280;2023-04-16T15:40:05;8.40;99.90
8709;DHT22;4391;48.678;9.280;2023-04-16T15:42:33;8.40;99.90
8709;DHT22;4391;48.678;9.280;2023-04-16T15:45:00;8.40;99.90
8709;DHT22;4391;48.678;9.280;2023-04-16T15:47:27;8.50;99.90
8709;DHT22;4391;48.678;9.280;2023-04-16T15:49:54;8.40;99.90
8709;DHT22;4391;48.678;9.280;2023-04-16T15:52:21;8.40;99.90
8709;DHT22;4391;48.678;9.280;2023-04-16T15:54:48;8.40;99.90
8709;DHT22;4391;48.678;9.280;2023-04-16T15:57:17;8.40;99.90
8709;DHT22;4391;48.678;9.280;2023-04-16T15:59:44;8.30;99.90
8709;DHT22;4391;48.678;9.280;2023-04-16T16:02:11;8.30;99.90
8709;DHT22;4391;48.678;9.280;2023-04-16T16:04:37;8.30;99.90
8709;DHT22;4391;48.678;9.280;2023-04-16T16:07:10;8.30;99.90
8709;DHT22;4391;48.678;9.280;2023-04-16T16:09:37;8.20;99.90
8709;DHT22;4391;48.678;9.280;2023-04-16T16:12:04;8.10;99.90
8709;DHT22;4391;48.678;9.280;2023-04-16T16:14:32;8.20;99.90
8709;DHT22;4391;48.678;9.280;2023-04-16T16:16:59;8.20;99.90
8709;DHT22;4391;48.678;9.280;2023-04-16T16:19:26;8.30;99.90
8709;DHT22;4391;48.678;9.280;2023-04-16T16:21:53;8.20;99.90
8709;DHT22;4391;48.678;9.280;2023-04-16T16:24:19;8.20;99.90